Time;durP1;ratioP1;P1;durP2;ratioP2;P2;SDS_P1;SDS_P2;PMS_P1;PMS_P2;Temp;Humidity;BMP_temperature;BMP_pressure;BME280_temperature;BME280_humidity;BME280_pressure;Samples;Min_cycle;Max_cycle;Signal;HPM_P1;HPM_P2
2024/04/03 00:01:15;;;;;;;0.50;0.50;;;9.50;99.90;;;;;;5077134;28;20448;-80
2024/04/03 00:03:42;;;;;;;0.80;0.60;;;9.50;99.90;;;;;;5077108;28;20436;-80
2024/04/03 00:06:08;;;;;;;0.50;0.40;;;9.60;99.90;;;;;;5077379;28;20433;-79
2024/04/03 00:08:34;;;;;;;0.60;0.50;;;9.60;99.90;;;;;;5084793;28;20452;-79
2024/04/03 00:11:00;;;;;;;6.23;3.13;;;9.60;99.90;;;;;;5077338;28;20218;-81
2024/04/03 00:13:29;;;;;;;0.70;0.70;;;9.60;99.90;;;;;;5085133;28;20836;-78
2024/04/03 00:15:57;;;;;;;1.50;0.80;;;9.60;99.90;;;;;;5086347;28;20440;-79
2024/04/03 00:18:24;;;;;;;0.63;0.63;;;9.60;99.90;;;;;;5086365;28;20301;-79
2024/04/03 00:20:59;;;;;;;1.40;1.30;;;9.60;99.90;;;;;;5086492;28;20198;-79
2024/04/03 00:23:27;;;;;;;0.87;0.60;;;9.60;99.90;;;;;;5086499;28;20195;-79
2024/04/03 00:25:58;;;;;;;0.50;0.50;;;9.60;99.90;;;;;;5083775;28;20437;-82
2024/04/03 00:28:25;;;;;;;0.87;0.87;;;9.60;99.90;;;;;;5076903;28;20462;-82
2024/04/03 00:30:53;;;;;;;0.60;0.50;;;9.60;99.90;;;;;;5077749;28;20502;-82
2024/04/03 00:33:19;;;;;;;2.77;1.53;;;9.60;99.90;;;;;;5076926;28;21021;-82
2024/04/03 00:35:57;;;;;;;0.50;0.40;;;9.60;99.90;;;;;;5077906;28;20449;-82
2024/04/03 00:38:24;;;;;;;5.07;3.07;;;9.60;99.90;;;;;;5077705;28;20268;-82
2024/04/03 00:40:57;;;;;;;2.70;1.23;;;9.70;99.90;;;;;;5077778;28;20437;-82
2024/04/03 00:43:24;;;;;;;6.00;1.90;;;9.70;99.90;;;;;;5076871;28;20432;-81
2024/04/03 00:45:52;;;;;;;0.90;0.57;;;9.70;99.90;;;;;;5077667;28;20448;-82
2024/04/03 00:48:20;;;;;;;1.00;0.90;;;9.70;99.90;;;;;;5076649;28;20453;-82
2024/04/03 00:50:47;;;;;;;0.88;0.88;;;9.70;99.90;;;;;;5077257;28;20480;-82
2024/04/03 00:53:15;;;;;;;1.10;1.10;;;9.70;99.90;;;;;;5077744;28;20190;-82
2024/04/03 00:55:42;;;;;;;0.50;0.50;;;9.70;99.90;;;;;;5077658;28;20792;-82
2024/04/03 00:58:09;;;;;;;0.50;0.40;;;9.70;99.90;;;;;;5075868;28;20459;-82
2024/04/03 01:00:35;;;;;;;0.50;0.40;;;9.70;99.90;;;;;;5077846;28;20963;-82
2024/04/03 01:03:04;;;;;;;0.60;0.60;;;9.70;99.90;;;;;;5077062;28;20443;-82
2024/04/03 01:05:31;;;;;;;0.50;0.40;;;9.70;99.90;;;;;;5077488;28;20451;-82
2024/04/03 01:07:58;;;;;;;1.13;0.80;;;9.70;99.90;;;;;;5077379;28;20234;-82
2024/04/03 01:10:25;;;;;;;0.70;0.50;;;9.70;99.90;;;;;;5077334;28;20443;-82
2024/04/03 01:12:52;;;;;;;1.33;1.17;;;9.70;99.90;;;;;;5077353;28;20218;-82
2024/04/03 01:15:18;;;;;;;0.50;0.40;;;9.70;99.90;;;;;;5077565;28;20448;-82
2024/04/03 01:17:45;;;;;;;0.60;0.60;;;9.70;99.90;;;;;;5074852;28;20991;-82
2024/04/03 01:20:12;;;;;;;1.30;1.20;;;9.70;99.90;;;;;;5076768;28;20202;-82
2024/04/03 01:22:39;;;;;;;0.50;0.40;;;9.70;99.90;;;;;;5076395;28;20440;-82
2024/04/03 01:25:07;;;;;;;0.77;0.77;;;9.70;99.90;;;;;;5077126;28;20437;-81
2024/04/03 01:27:34;;;;;;;0.50;0.40;;;9.70;99.90;;;;;;5076912;28;20456;-82
2024/04/03 01:29:59;;;;;;;0.50;0.40;;;9.70;99.90;;;;;;5077620;28;20437;-82
2024/04/03 01:32:28;;;;;;;0.87;0.70;;;9.70;99.90;;;;;;5076638;28;20838;-82
2024/04/03 01:34:56;;;;;;;0.50;0.40;;;9.70;99.90;;;;;;5077693;28;20444;-82
2024/04/03 01:37:26;;;;;;;1.97;1.13;;;9.70;99.90;;;;;;5077548;28;20823;-82
2024/04/03 01:39:51;;;;;;;0.90;0.80;;;9.70;99.90;;;;;;5076970;28;20437;-82
2024/04/03 01:42:21;;;;;;;1.17;1.07;;;9.70;99.90;;;;;;5077154;28;20486;-82
2024/04/03 01:44:47;;;;;;;0.93;0.93;;;9.70;99.90;;;;;;5076948;28;20206;-82
2024/04/03 01:47:16;;;;;;;2.58;0.93;;;9.70;99.90;;;;;;5076361;28;20193;-81
2024/04/03 01:49:42;;;;;;;1.20;1.13;;;9.70;99.90;;;;;;5076674;28;20668;-82
2024/04/03 01:52:09;;;;;;;0.50;0.40;;;9.70;99.90;;;;;;5076998;28;20261;-82
2024/04/03 01:54:34;;;;;;;1.83;0.80;;;9.60;99.90;;;;;;5076040;28;20433;-82
2024/04/03 01:57:01;;;;;;;1.13;0.60;;;9.60;99.90;;;;;;5076296;28;20524;-82
2024/04/03 01:59:28;;;;;;;0.60;0.50;;;9.70;99.90;;;;;;5086268;28;20195;-79
2024/04/03 02:01:55;;;;;;;1.57;1.47;;;9.70;99.90;;;;;;5089919;28;20448;-79
2024/04/03 02:04:22;;;;;;;0.50;0.50;;;9.70;99.90;;;;;;5078890;28;20982;-81
2024/04/03 02:06:51;;;;;;;0.50;0.40;;;9.70;99.90;;;;;;5076191;28;20436;-81
2024/04/03 02:09:18;;;;;;;0.57;0.53;;;9.60;99.90;;;;;;5075927;28;20467;-82
2024/04/03 02:11:45;;;;;;;8.63;3.60;;;9.70;99.90;;;;;;5076498;28;20530;-82
2024/04/03 02:14:12;;;;;;;0.60;0.60;;;9.70;99.90;;;;;;5076898;28;20459;-82
2024/04/03 02:16:42;;;;;;;0.50;0.40;;;9.70;99.90;;;;;;5076874;28;20432;-82
2024/04/03 02:19:08;;;;;;;0.50;0.40;;;9.60;99.90;;;;;;5075923;28;20218;-82
2024/04/03 02:21:36;;;;;;;18.13;1.03;;;9.60;99.90;;;;;;5076906;28;20468;-82
2024/04/03 02:24:02;;;;;;;0.80;0.80;;;9.60;99.90;;;;;;5076325;28;20464;-82
2024/04/03 02:26:28;;;;;;;1.13;0.90;;;9.60;99.90;;;;;;5076118;28;20661;-81
2024/04/03 02:28:54;;;;;;;0.90;0.60;;;9.60;99.90;;;;;;5076436;28;20945;-82
2024/04/03 02:31:21;;;;;;;0.50;0.40;;;9.60;99.90;;;;;;5077857;28;20467;-82
2024/04/03 02:33:49;;;;;;;0.50;0.40;;;9.60;99.90;;;;;;5079712;28;20661;-82
2024/04/03 02:36:16;;;;;;;0.50;0.40;;;9.60;99.90;;;;;;5078998;28;20444;-82
2024/04/03 02:38:43;;;;;;;0.50;0.40;;;9.60;99.90;;;;;;5079903;28;20495;-82
2024/04/03 02:41:13;;;;;;;0.50;0.50;;;9.70;99.90;;;;;;5079993;28;20435;-82
2024/04/03 02:43:39;;;;;;;1.03;1.00;;;9.70;99.90;;;;;;5079011;28;20440;-82
2024/04/03 02:46:06;;;;;;;0.50;0.50;;;9.60;99.90;;;;;;5078991;28;21061;-82
2024/04/03 02:48:32;;;;;;;0.50;0.50;;;9.60;99.90;;;;;;5078796;28;20214;-81
2024/04/03 02:51:04;;;;;;;3.40;0.80;;;9.60;99.90;;;;;;5078678;28;20190;-79
2024/04/03 02:53:31;;;;;;;0.50;0.40;;;9.60;99.90;;;;;;5074663;28;20195;-79
2024/04/03 02:56:01;;;;;;;0.50;0.40;;;9.60;99.90;;;;;;5074824;28;20289;-80
2024/04/03 02:58:27;;;;;;;0.60;0.53;;;9.60;99.90;;;;;;5074486;28;20461;-80
2024/04/03 03:01:03;;;;;;;0.50;0.40;;;9.60;99.90;;;;;;5074411;28;20447;-80
2024/04/03 03:03:31;;;;;;;0.73;0.70;;;9.60;99.90;;;;;;5074593;28;20432;-80
2024/04/03 03:05:58;;;;;;;0.50;0.40;;;9.60;99.90;;;;;;5077340;28;20436;-82
2024/04/03 03:08:28;;;;;;;0.50;0.40;;;9.50;99.90;;;;;;5079201;28;20214;-82
2024/04/03 03:10:55;;;;;;;0.60;0.60;;;9.50;99.90;;;;;;5079151;28;20503;-82
2024/04/03 03:13:21;;;;;;;0.50;0.40;;;9.40;99.90;;;;;;5078635;28;20436;-82
2024/04/03 03:15:54;;;;;;;0.50;0.40;;;9.40;99.90;;;;;;5078510;28;20951;-81
2024/04/03 03:18:22;;;;;;;1.27;1.27;;;9.40;99.90;;;;;;5078959;28;20859;-81
2024/04/03 03:20:49;;;;;;;0.50;0.40;;;9.40;99.90;;;;;;5078646;28;20469;-81
2024/04/03 03:23:17;;;;;;;25.13;1.77;;;9.40;99.90;;;;;;5078321;28;20823;-82
2024/04/03 03:25:48;;;;;;;0.50;0.40;;;9.30;99.90;;;;;;5078628;28;20501;-82
2024/04/03 03:28:15;;;;;;;0.50;0.40;;;9.30;99.90;;;;;;5078872;28;20822;-82
2024/04/03 03:30:46;;;;;;;0.70;0.40;;;9.30;99.90;;;;;;5077533;28;20194;-80
2024/04/03 03:33:12;;;;;;;0.50;0.50;;;9.20;99.90;;;;;;5077817;28;20475;-81
2024/04/03 03:35:39;;;;;;;0.50;0.40;;;9.20;99.90;;;;;;5074722;28;20440;-80
2024/04/03 03:38:07;;;;;;;0.50;0.40;;;9.20;99.90;;;;;;5074166;28;20218;-79
2024/04/03 03:40:38;;;;;;;0.50;0.40;;;9.30;99.90;;;;;;5073901;28;20205;-81
2024/04/03 03:43:07;;;;;;;0.50;0.40;;;9.20;99.90;;;;;;5074316;28;20592;-80
2024/04/03 03:45:43;;;;;;;0.50;0.40;;;9.20;99.90;;;;;;5074954;28;20429;-80
2024/04/03 03:48:09;;;;;;;0.50;0.40;;;9.20;99.90;;;;;;5059690;28;20445;-81
2024/04/03 03:53:21;;;;;;;2.20;0.60;;;9.20;99.90;;;;;;5059095;28;20222;-82
2024/04/03 03:55:48;;;;;;;0.50;0.40;;;9.20;99.90;;;;;;5057757;28;20433;-81
2024/04/03 03:58:19;;;;;;;0.50;0.50;;;9.20;99.90;;;;;;5060274;28;20218;-82
2024/04/03 04:00:47;;;;;;;0.50;0.40;;;9.20;99.90;;;;;;5060852;28;20285;-83
2024/04/03 04:03:14;;;;;;;1.33;0.60;;;9.30;99.90;;;;;;5059585;28;20206;-83
2024/04/03 04:05:40;;;;;;;0.50;0.40;;;9.30;99.90;;;;;;5059656;28;20778;-82
2024/04/03 04:08:06;;;;;;;0.90;0.80;;;9.20;99.90;;;;;;5059477;28;20454;-82
2024/04/03 04:10:35;;;;;;;0.50;0.40;;;9.20;99.90;;;;;;5059043;28;20456;-81
2024/04/03 04:13:00;;;;;;;0.50;0.40;;;9.20;99.90;;;;;;5059011;28;20221;-82
2024/04/03 04:15:30;;;;;;;0.50;0.50;;;9.20;99.90;;;;;;5058663;28;20433;-82
2024/04/03 04:17:57;;;;;;;0.70;0.50;;;9.20;99.90;;;;;;5059193;28;20223;-82
2024/04/03 04:20:24;;;;;;;0.50;0.40;;;9.20;99.90;;;;;;5059722;28;20234;-82
2024/04/03 04:22:50;;;;;;;0.47;0.40;;;9.20;99.90;;;;;;5059460;28;20444;-83
2024/04/03 04:25:17;;;;;;;0.83;0.83;;;9.20;99.90;;;;;;5058291;28;20445;-82
2024/04/03 04:27:43;;;;;;;0.50;0.40;;;9.30;99.90;;;;;;5061780;28;20454;-80
2024/04/03 04:30:10;;;;;;;1.13;1.13;;;9.30;99.90;;;;;;5063486;28;20434;-79
2024/04/03 04:32:37;;;;;;;0.50;0.50;;;9.30;99.90;;;;;;5058346;28;20474;-80
2024/04/03 04:35:06;;;;;;;0.50;0.50;;;9.20;99.90;;;;;;5061859;28;20224;-81
2024/04/03 04:37:31;;;;;;;0.70;0.70;;;9.20;99.90;;;;;;5066201;28;20286;-81
2024/04/03 04:40:00;;;;;;;0.50;0.40;;;9.20;99.90;;;;;;5069838;28;20460;-82
2024/04/03 04:42:26;;;;;;;1.33;1.33;;;9.30;99.90;;;;;;5080410;28;20594;-82
2024/04/03 04:44:52;;;;;;;0.90;0.60;;;9.30;99.90;;;;;;5079055;28;20439;-82
2024/04/03 04:47:19;;;;;;;0.50;0.40;;;9.30;99.90;;;;;;5078317;28;20452;-81
2024/04/03 04:49:46;;;;;;;0.50;0.40;;;9.30;99.90;;;;;;5078029;28;20437;-81
2024/04/03 04:52:13;;;;;;;0.97;0.97;;;9.30;99.90;;;;;;5077789;28;20525;-81
2024/04/03 04:54:39;;;;;;;0.70;0.50;;;9.30;99.90;;;;;;5076266;28;20437;-82
2024/04/03 04:57:09;;;;;;;0.80;0.80;;;9.20;99.90;;;;;;5077149;28;20196;-81
2024/04/03 04:59:35;;;;;;;0.50;0.40;;;9.20;99.90;;;;;;5076814;28;20247;-80
2024/04/03 05:02:02;;;;;;;0.50;0.40;;;9.20;99.90;;;;;;5076889;28;20194;-78
2024/04/03 05:04:28;;;;;;;0.50;0.40;;;9.20;99.90;;;;;;5074593;28;20197;-79
2024/04/03 05:07:02;;;;;;;0.50;0.40;;;9.30;99.90;;;;;;5075578;28;20432;-81
2024/04/03 05:09:28;;;;;;;1.08;0.98;;;9.30;99.90;;;;;;5076023;28;20432;-80
2024/04/03 05:11:55;;;;;;;0.50;0.50;;;9.30;99.90;;;;;;5075741;28;20225;-81
2024/04/03 05:14:21;;;;;;;0.50;0.40;;;9.30;99.90;;;;;;5076143;28;20804;-81
2024/04/03 05:16:48;;;;;;;0.50;0.40;;;9.30;99.90;;;;;;5075828;28;20436;-82
2024/04/03 05:19:14;;;;;;;0.50;0.40;;;9.30;99.90;;;;;;5075542;28;20214;-80
2024/04/03 05:21:41;;;;;;;0.50;0.40;;;9.30;99.90;;;;;;5076730;28;20220;-82
2024/04/03 05:24:09;;;;;;;0.50;0.40;;;9.30;99.90;;;;;;5076864;28;20194;-81
2024/04/03 05:26:37;;;;;;;0.50;0.40;;;9.30;99.90;;;;;;5076390;28;20199;-81
2024/04/03 05:29:03;;;;;;;0.50;0.40;;;9.40;99.90;;;;;;5076655;28;20453;-82
2024/04/03 05:31:31;;;;;;;0.50;0.40;;;9.30;99.90;;;;;;5076182;28;20573;-81
2024/04/03 05:34:01;;;;;;;0.50;0.40;;;9.40;99.90;;;;;;5074851;28;20536;-81
2024/04/03 05:36:28;;;;;;;0.40;0.40;;;9.40;99.90;;;;;;5074388;28;20500;-82
2024/04/03 05:38:56;;;;;;;0.50;0.40;;;9.40;99.90;;;;;;5076603;28;20570;-82
2024/04/03 05:41:26;;;;;;;0.50;0.40;;;9.40;99.90;;;;;;5076506;28;20468;-81
2024/04/03 05:43:53;;;;;;;0.50;0.40;;;9.40;99.90;;;;;;5075835;28;20258;-81
2024/04/03 05:46:20;;;;;;;0.50;0.40;;;9.40;99.90;;;;;;5075998;28;20281;-81
2024/04/03 05:48:46;;;;;;;1.88;0.70;;;9.40;99.90;;;;;;5076191;28;20467;-80
2024/04/03 05:51:13;;;;;;;0.50;0.50;;;9.40;99.90;;;;;;5076791;28;20195;-82
2024/04/03 05:53:39;;;;;;;1.58;0.70;;;9.40;99.90;;;;;;5076866;28;20219;-82
2024/04/03 05:56:18;;;;;;;0.50;0.50;;;9.40;99.90;;;;;;5076997;28;20194;-81
2024/04/03 05:58:46;;;;;;;0.63;0.63;;;9.40;99.90;;;;;;5076596;28;21230;-81
2024/04/03 06:01:14;;;;;;;0.50;0.40;;;9.50;99.90;;;;;;5076331;28;20452;-80
2024/04/03 06:03:40;;;;;;;0.60;0.60;;;9.40;99.90;;;;;;5076762;28;20436;-82
2024/04/03 06:06:07;;;;;;;0.50;0.40;;;9.50;99.90;;;;;;5079859;28;20443;-80
2024/04/03 06:08:33;;;;;;;0.57;0.50;;;9.50;99.90;;;;;;5069718;28;20480;-81
2024/04/03 06:11:00;;;;;;;0.50;0.40;;;9.50;99.90;;;;;;5075587;28;20788;-80
2024/04/03 06:13:27;;;;;;;0.67;0.67;;;9.50;99.90;;;;;;5080649;28;20210;-80
2024/04/03 06:15:55;;;;;;;0.50;0.40;;;9.60;99.90;;;;;;5080435;28;20445;-82
2024/04/03 06:18:21;;;;;;;0.50;0.40;;;9.60;99.90;;;;;;5080454;28;20547;-81
2024/04/03 06:20:51;;;;;;;0.40;0.40;;;9.60;99.90;;;;;;5080276;28;20437;-81
2024/04/03 06:23:17;;;;;;;0.50;0.40;;;9.70;99.90;;;;;;5079878;28;20202;-79
2024/04/03 06:25:44;;;;;;;0.50;0.40;;;9.70;99.90;;;;;;5080253;28;20436;-80
2024/04/03 06:28:10;;;;;;;0.50;0.50;;;9.80;99.90;;;;;;5081846;28;20459;-81
2024/04/03 06:30:38;;;;;;;0.50;0.40;;;9.80;99.90;;;;;;5082996;28;20779;-79
2024/04/03 06:33:06;;;;;;;0.50;0.40;;;9.90;99.90;;;;;;5079501;28;20214;-81
2024/04/03 06:35:33;;;;;;;1.70;0.67;;;10.00;99.90;;;;;;5078802;28;20528;-81
2024/04/03 06:37:59;;;;;;;1.10;0.50;;;10.10;99.90;;;;;;5079104;28;20452;-81
2024/04/03 06:40:28;;;;;;;0.50;0.40;;;10.10;99.90;;;;;;5080974;28;20458;-80
2024/04/03 06:42:54;;;;;;;0.50;0.50;;;10.20;99.90;;;;;;5079044;28;20190;-81
2024/04/03 06:45:22;;;;;;;1.90;0.90;;;10.30;99.90;;;;;;5079399;28;20197;-80
2024/04/03 06:47:49;;;;;;;0.70;0.70;;;10.30;99.90;;;;;;5079198;28;20882;-80
2024/04/03 06:50:17;;;;;;;0.50;0.50;;;10.30;99.90;;;;;;5079559;28;20436;-81
2024/04/03 06:52:43;;;;;;;0.50;0.40;;;10.40;99.90;;;;;;5084141;28;20475;-79
2024/04/03 06:55:13;;;;;;;0.50;0.50;;;10.30;99.90;;;;;;5082581;28;20433;-79
2024/04/03 06:57:41;;;;;;;0.50;0.40;;;10.40;99.90;;;;;;5081009;28;20272;-81
2024/04/03 07:00:09;;;;;;;0.50;0.50;;;10.40;99.90;;;;;;5078943;28;20432;-81
2024/04/03 07:02:36;;;;;;;0.50;0.50;;;10.50;99.90;;;;;;5077561;28;20429;-78
2024/04/03 07:05:03;;;;;;;2.83;2.60;;;10.50;99.90;;;;;;5079357;28;20788;-81
2024/04/03 07:07:30;;;;;;;1.90;0.60;;;10.60;99.90;;;;;;5079359;28;20496;-80
2024/04/03 07:09:59;;;;;;;0.50;0.40;;;10.60;99.90;;;;;;5078930;28;20445;-80
2024/04/03 07:12:25;;;;;;;0.50;0.40;;;10.60;99.90;;;;;;5079526;28;20595;-80
2024/04/03 07:14:57;;;;;;;0.70;0.50;;;10.50;99.90;;;;;;5079543;28;20819;-81
2024/04/03 07:17:23;;;;;;;0.83;0.83;;;10.50;99.90;;;;;;5078288;28;20970;-80
2024/04/03 07:19:50;;;;;;;0.57;0.57;;;10.40;99.90;;;;;;5077871;28;20444;-80
2024/04/03 07:22:16;;;;;;;0.50;0.40;;;10.30;99.90;;;;;;5078072;28;20429;-82
2024/04/03 07:24:45;;;;;;;3.10;0.90;;;10.20;99.90;;;;;;5077511;28;20436;-81
2024/04/03 07:27:10;;;;;;;6.20;0.80;;;10.30;99.90;;;;;;5078338;28;20203;-83
2024/04/03 07:29:37;;;;;;;0.50;0.40;;;10.30;99.90;;;;;;5079253;28;20923;-82
2024/04/03 07:32:04;;;;;;;2.13;1.93;;;10.20;99.90;;;;;;5078295;28;20476;-82
2024/04/03 07:34:31;;;;;;;0.50;0.40;;;10.20;99.90;;;;;;5077750;28;20474;-82
2024/04/03 07:36:57;;;;;;;1.90;0.60;;;10.20;99.90;;;;;;5077615;28;20789;-82
2024/04/03 07:39:26;;;;;;;0.50;0.40;;;10.20;99.90;;;;;;5077369;28;20435;-83
2024/04/03 07:41:53;;;;;;;0.60;0.60;;;10.10;99.90;;;;;;5079165;28;20214;-83
2024/04/03 07:44:21;;;;;;;2.30;2.20;;;10.20;99.90;;;;;;5077819;28;20490;-82
2024/04/03 07:46:49;;;;;;;0.50;0.40;;;10.20;99.90;;;;;;5079767;28;20472;-82
2024/04/03 07:49:15;;;;;;;0.50;0.40;;;10.20;99.90;;;;;;5079221;28;20464;-84
2024/04/03 07:51:46;;;;;;;0.50;0.40;;;10.10;99.90;;;;;;5088285;28;20432;-82
2024/04/03 07:54:12;;;;;;;0.50;0.40;;;10.10;99.90;;;;;;5084333;28;20421;-84
2024/04/03 07:56:38;;;;;;;0.80;0.80;;;10.10;99.90;;;;;;5080211;28;20524;-82
2024/04/03 07:59:06;;;;;;;0.50;0.40;;;10.20;99.90;;;;;;5084611;28;20448;-86
2024/04/03 08:01:32;;;;;;;0.50;0.40;;;10.30;99.90;;;;;;5091385;28;20202;-80
2024/04/03 08:04:04;;;;;;;0.50;0.40;;;10.30;99.90;;;;;;5082833;28;20508;-77
2024/04/03 08:06:30;;;;;;;0.50;0.40;;;10.30;99.90;;;;;;5076658;28;20222;-80
2024/04/03 08:08:57;;;;;;;0.50;0.40;;;10.20;99.90;;;;;;5073324;28;20870;-79
2024/04/03 08:11:25;;;;;;;0.50;0.40;;;10.20;99.90;;;;;;5073786;28;20433;-83
2024/04/03 08:13:52;;;;;;;0.50;0.40;;;10.20;99.90;;;;;;5076410;28;20508;-83
2024/04/03 08:16:19;;;;;;;4.10;1.10;;;10.30;99.90;;;;;;5080093;28;20512;-82
2024/04/03 08:18:46;;;;;;;0.50;0.40;;;10.40;99.90;;;;;;5078993;28;20468;-84
2024/04/03 08:21:13;;;;;;;0.50;0.40;;;10.50;99.90;;;;;;5079146;28;20437;-82
2024/04/03 08:23:40;;;;;;;0.50;0.50;;;10.50;99.90;;;;;;5077611;28;20524;-82
2024/04/03 08:26:07;;;;;;;0.50;0.40;;;10.60;99.90;;;;;;5076865;28;20527;-82
2024/04/03 08:28:39;;;;;;;0.50;0.40;;;10.50;99.90;;;;;;5076855;28;20828;-83
2024/04/03 08:31:10;;;;;;;0.50;0.40;;;10.60;99.90;;;;;;5078998;28;20502;-84
2024/04/03 08:33:38;;;;;;;1.00;0.60;;;10.70;99.90;;;;;;5078408;28;20469;-83
2024/04/03 08:36:07;;;;;;;0.60;0.50;;;10.70;99.90;;;;;;5077856;28;20433;-82
2024/04/03 08:38:36;;;;;;;1.37;0.97;;;10.60;99.90;;;;;;5075594;28;20467;-83
2024/04/03 08:41:02;;;;;;;0.60;0.60;;;10.50;99.90;;;;;;5077282;28;20444;-84
2024/04/03 08:43:29;;;;;;;0.70;0.40;;;10.60;99.90;;;;;;5077607;28;20433;-82
2024/04/03 08:45:57;;;;;;;0.97;0.97;;;10.70;99.90;;;;;;5078248;28;20888;-82
2024/04/03 08:48:25;;;;;;;0.50;0.40;;;10.70;99.90;;;;;;5076114;28;20983;-83
2024/04/03 08:50:56;;;;;;;0.50;0.40;;;10.80;99.90;;;;;;5078390;28;20436;-83
2024/04/03 08:53:24;;;;;;;0.50;0.40;;;10.90;99.90;;;;;;5079204;28;20500;-82
2024/04/03 08:55:53;;;;;;;0.50;0.40;;;11.10;99.90;;;;;;5077700;28;20440;-83
2024/04/03 08:58:22;;;;;;;1.20;1.10;;;11.10;99.90;;;;;;5079251;28;20463;-82
2024/04/03 09:00:49;;;;;;;0.50;0.40;;;11.00;99.90;;;;;;5075993;28;20451;-81
2024/04/03 09:03:16;;;;;;;0.60;0.50;;;11.10;99.90;;;;;;5074445;28;20435;-81
2024/04/03 09:05:43;;;;;;;0.70;0.70;;;11.00;99.90;;;;;;5074823;28;20529;-80
2024/04/03 09:08:13;;;;;;;1.13;1.03;;;11.10;99.90;;;;;;5074441;28;20452;-81
2024/04/03 09:10:43;;;;;;;0.50;0.40;;;11.00;99.90;;;;;;5074802;28;20439;-83
2024/04/03 09:13:11;;;;;;;0.70;0.70;;;11.00;99.90;;;;;;5074487;28;20575;-81
2024/04/03 09:15:37;;;;;;;0.50;0.40;;;11.10;99.90;;;;;;5075086;28;20441;-81
2024/04/03 09:18:06;;;;;;;0.50;0.40;;;11.10;99.90;;;;;;5073951;28;20831;-81
2024/04/03 09:20:32;;;;;;;0.50;0.40;;;11.30;99.90;;;;;;5084277;28;20232;-81
2024/04/03 09:23:00;;;;;;;0.87;0.50;;;11.30;99.90;;;;;;5081335;28;20432;-81
2024/04/03 09:25:27;;;;;;;1.43;0.97;;;11.30;99.90;;;;;;5074570;28;20436;-81
2024/04/03 09:28:06;;;;;;;0.70;0.50;;;11.20;99.90;;;;;;5074423;28;20971;-82
2024/04/03 09:30:34;;;;;;;1.37;0.70;;;11.40;99.90;;;;;;5073978;28;20506;-83
2024/04/03 09:33:03;;;;;;;0.60;0.60;;;11.40;99.90;;;;;;5079720;28;20530;-81
2024/04/03 09:35:31;;;;;;;0.93;0.80;;;11.40;99.90;;;;;;5077866;28;20445;-80
2024/04/03 09:37:59;;;;;;;0.50;0.40;;;11.50;99.90;;;;;;5092310;28;20502;-79
2024/04/03 09:40:28;;;;;;;0.77;0.77;;;11.40;99.90;;;;;;5094440;28;20435;-78
2024/04/03 09:42:58;;;;;;;0.50;0.50;;;11.40;99.90;;;;;;5096624;28;20433;-79
2024/04/03 09:45:26;;;;;;;0.50;0.50;;;11.50;99.90;;;;;;5095688;28;20438;-79
2024/04/03 09:48:00;;;;;;;1.23;1.23;;;11.50;99.90;;;;;;5094271;28;20982;-79
2024/04/03 09:50:52;;;;;;;0.50;0.50;;;11.50;99.90;;;;;;5093957;28;20427;-80
2024/04/03 09:53:24;;;;;;;1.43;1.33;;;11.60;99.90;;;;;;5079401;28;20464;-82
2024/04/03 09:55:56;;;;;;;0.50;0.40;;;11.70;99.90;;;;;;5080693;28;20444;-82
2024/04/03 09:58:26;;;;;;;1.70;0.90;;;11.80;99.90;;;;;;5080534;28;20456;-81
2024/04/03 10:00:55;;;;;;;0.70;0.50;;;11.90;99.90;;;;;;5079983;28;20448;-82
2024/04/03 10:03:24;;;;;;;0.50;0.50;;;11.90;99.90;;;;;;5079896;28;20432;-80
2024/04/03 10:05:59;;;;;;;3.03;0.87;;;11.80;99.90;;;;;;5081058;28;20464;-82
2024/04/03 10:08:32;;;;;;;1.23;0.60;;;11.60;99.90;;;;;;5082767;28;20456;-83
2024/04/03 10:11:06;;;;;;;0.63;0.63;;;11.60;99.90;;;;;;5080192;28;20497;-82
2024/04/03 10:13:32;;;;;;;0.50;0.40;;;11.50;99.90;;;;;;5081622;28;20480;-81
2024/04/03 10:16:01;;;;;;;0.50;0.50;;;11.60;99.90;;;;;;5080657;28;20437;-82
2024/04/03 10:18:27;;;;;;;0.60;0.60;;;11.80;99.90;;;;;;5081922;28;20492;-80
2024/04/03 10:20:57;;;;;;;0.50;0.40;;;11.80;99.90;;;;;;5081124;28;20425;-81
2024/04/03 10:23:26;;;;;;;0.67;0.67;;;11.90;99.90;;;;;;5081623;28;20494;-81
2024/04/03 10:25:56;;;;;;;1.33;1.17;;;12.00;99.90;;;;;;5081577;28;20531;-81
2024/04/03 10:28:23;;;;;;;0.80;0.70;;;12.00;99.90;;;;;;5082252;28;20971;-82
2024/04/03 10:30:56;;;;;;;0.63;0.60;;;11.90;99.90;;;;;;5082139;28;20440;-80
2024/04/03 10:33:23;;;;;;;1.30;1.20;;;11.90;99.90;;;;;;5082650;28;20473;-80
2024/04/03 10:35:51;;;;;;;0.50;0.40;;;12.00;99.90;;;;;;5084540;28;20894;-81
2024/04/03 10:38:16;;;;;;;0.60;0.60;;;12.10;99.90;;;;;;5083894;28;20459;-81
2024/04/03 10:40:46;;;;;;;1.27;0.80;;;12.00;99.90;;;;;;5083388;28;20456;-81
2024/04/03 10:43:12;;;;;;;0.90;0.63;;;11.90;99.90;;;;;;5083270;28;20196;-81
2024/04/03 10:45:47;;;;;;;1.00;0.70;;;11.90;99.90;;;;;;5083747;28;20868;-81
2024/04/03 10:48:13;;;;;;;0.80;0.80;;;11.90;99.90;;;;;;5083096;28;20463;-81
2024/04/03 10:50:41;;;;;;;2.67;0.80;;;11.90;99.90;;;;;;5082114;28;20857;-80
2024/04/03 10:53:09;;;;;;;0.50;0.50;;;11.80;99.90;;;;;;5081044;28;20472;-82
2024/04/03 10:55:36;;;;;;;0.60;0.50;;;11.90;99.90;;;;;;5081347;28;20441;-82
2024/04/03 10:58:04;;;;;;;0.80;0.80;;;12.10;99.90;;;;;;5081735;28;20507;-83
2024/04/03 11:00:44;;;;;;;0.57;0.47;;;12.20;99.90;;;;;;5081170;28;20467;-82
2024/04/03 11:03:11;;;;;;;0.70;0.60;;;12.30;99.90;;;;;;5079796;28;20421;-82
2024/04/03 11:05:39;;;;;;;1.47;0.87;;;12.60;99.90;;;;;;5080836;28;20436;-80
2024/04/03 11:08:09;;;;;;;0.50;0.50;;;12.60;99.90;;;;;;5080364;28;20998;-81
2024/04/03 11:10:37;;;;;;;0.83;0.83;;;12.40;99.90;;;;;;5079804;28;20432;-79
2024/04/03 11:13:04;;;;;;;5.53;0.63;;;12.50;99.90;;;;;;5079145;28;20472;-85
2024/04/03 11:15:31;;;;;;;0.50;0.40;;;12.30;99.90;;;;;;5080132;28;20477;-79
2024/04/03 11:17:59;;;;;;;0.70;0.70;;;12.40;99.90;;;;;;5079079;28;20465;-77
2024/04/03 11:20:28;;;;;;;1.50;1.07;;;12.50;99.90;;;;;;5078837;28;20447;-78
2024/04/03 11:22:56;;;;;;;0.50;0.40;;;12.60;99.90;;;;;;5077605;28;20790;-79
2024/04/03 11:25:24;;;;;;;1.23;1.13;;;12.70;99.90;;;;;;5078991;28;20952;-79
2024/04/03 11:27:50;;;;;;;30.83;2.60;;;12.90;99.90;;;;;;5078572;28;20458;-84
2024/04/03 11:30:17;;;;;;;2.60;1.80;;;13.30;99.90;;;;;;5079128;28;20448;-82
2024/04/03 11:32:43;;;;;;;1.83;1.17;;;13.70;99.90;;;;;;5080334;28;20570;-80
2024/04/03 11:35:12;;;;;;;0.60;0.60;;;13.90;99.90;;;;;;5081751;28;20504;-83
2024/04/03 11:37:38;;;;;;;0.50;0.40;;;14.10;99.90;;;;;;5081440;28;20468;-82
2024/04/03 11:40:06;;;;;;;0.80;0.60;;;13.80;99.90;;;;;;5079543;28;20434;-79
2024/04/03 11:42:34;;;;;;;0.50;0.50;;;13.70;99.90;;;;;;5080053;28;20443;-82
2024/04/03 11:45:01;;;;;;;0.50;0.40;;;13.50;99.90;;;;;;5081265;28;20438;-81
2024/04/03 11:47:27;;;;;;;0.60;0.50;;;13.50;99.90;;;;;;5090441;28;20456;-78
2024/04/03 11:49:56;;;;;;;8.03;0.70;;;13.50;99.90;;;;;;5096978;28;20472;-78
2024/04/03 11:52:26;;;;;;;0.90;0.60;;;13.30;99.90;;;;;;5081216;28;20206;-82
2024/04/03 11:54:53;;;;;;;0.70;0.60;;;12.90;99.90;;;;;;5079631;28;20828;-79
2024/04/03 11:57:19;;;;;;;0.73;0.50;;;12.80;99.90;;;;;;5076612;28;20461;-84
2024/04/03 11:59:46;;;;;;;0.50;0.50;;;12.60;99.90;;;;;;5081220;28;20462;-81
2024/04/03 12:02:13;;;;;;;0.53;0.47;;;12.40;99.90;;;;;;5083335;28;20433;-82
2024/04/03 12:04:42;;;;;;;1.87;0.50;;;12.40;99.90;;;;;;5080671;28;20444;-82
2024/04/03 12:07:08;;;;;;;8.23;0.70;;;12.30;99.90;;;;;;5080933;28;20432;-83
2024/04/03 12:09:37;;;;;;;0.50;0.50;;;12.30;99.90;;;;;;5079593;28;20433;-82
2024/04/03 12:12:05;;;;;;;0.50;0.40;;;12.40;99.90;;;;;;5080950;28;20460;-83
2024/04/03 12:14:32;;;;;;;0.50;0.40;;;12.50;99.90;;;;;;5078961;28;20475;-84
2024/04/03 12:17:02;;;;;;;0.70;0.70;;;12.70;99.90;;;;;;5078794;28;20936;-82
2024/04/03 12:19:44;;;;;;;0.53;0.47;;;12.60;99.90;;;;;;5077321;28;20455;-81
2024/04/03 12:22:10;;;;;;;0.50;0.43;;;12.70;99.90;;;;;;5078258;28;20429;-81
2024/04/03 12:24:38;;;;;;;0.50;0.50;;;12.70;99.90;;;;;;5077173;28;20494;-82
2024/04/03 12:27:04;;;;;;;0.50;0.40;;;12.60;99.90;;;;;;5082139;28;20437;-80
2024/04/03 12:29:31;;;;;;;0.60;0.50;;;12.70;99.90;;;;;;5082614;28;20804;-80
2024/04/03 12:31:59;;;;;;;0.50;0.40;;;12.50;99.90;;;;;;5083605;28;20440;-80
2024/04/03 12:34:26;;;;;;;0.50;0.40;;;12.40;99.90;;;;;;5077556;28;20474;-81
2024/04/03 12:36:52;;;;;;;0.60;0.53;;;12.50;99.90;;;;;;5082693;28;20438;-80
2024/04/03 12:39:19;;;;;;;0.50;0.50;;;12.60;99.90;;;;;;5083122;28;20467;-79
2024/04/03 12:41:46;;;;;;;1.03;0.80;;;12.40;99.90;;;;;;5082879;28;20191;-81
2024/04/03 12:44:13;;;;;;;0.50;0.40;;;12.40;99.90;;;;;;5075222;28;20846;-81
2024/04/03 12:46:39;;;;;;;1.73;1.00;;;12.60;99.90;;;;;;5074421;28;20440;-80
2024/04/03 12:49:06;;;;;;;0.50;0.40;;;12.70;99.90;;;;;;5074171;28;20457;-80
2024/04/03 12:51:32;;;;;;;0.60;0.60;;;12.70;99.90;;;;;;5074437;28;20213;-80
2024/04/03 12:54:00;;;;;;;0.50;0.50;;;12.40;99.90;;;;;;5074813;28;20487;-80
2024/04/03 12:56:26;;;;;;;1.07;1.07;;;12.40;99.90;;;;;;5074296;28;20440;-80
2024/04/03 12:58:55;;;;;;;0.60;0.60;;;12.20;99.90;;;;;;5074064;28;20456;-78